Terminal Aerodrome Forecast
Issued by NWS

Home | Current Version | Previous Version | Text Only | Print | Product List | Glossary On
Versions: 1 2 3 4 5 6 7 8 9 10 11 12 13 14 15 16 17 18 19 20
000
FTUS41 KPHI 231507 AAB
TAFPNE
TAF AMD
KPNE 231507Z 2315/2412 04008KT P6SM FEW018 OVC200
     FM232000 09004KT P6SM BKN150
     FM240500 VRB04KT P6SM BKN060=

USA.gov is the U.S. government's official web portal to all federal, state and local government web resources and services.